sensor_id;sensor_type;location;lat;lon;timestamp;P1;durP1;ratioP1;P2;durP2;ratioP2
39956;SDS011;48483;44.640;7.494;2023-07-20T00:01:28;14.93;;;11.23;;
39956;SDS011;48483;44.640;7.494;2023-07-20T00:03:55;17.25;;;10.90;;
39956;SDS011;48483;44.640;7.494;2023-07-20T00:06:23;15.82;;;11.93;;
39956;SDS011;48483;44.640;7.494;2023-07-20T00:08:50;16.83;;;12.75;;
39956;SDS011;48483;44.640;7.494;2023-07-20T00:11:17;19.85;;;13.15;;
39956;SDS011;48483;44.640;7.494;2023-07-20T00:13:44;15.93;;;12.48;;
39956;SDS011;48483;44.640;7.494;2023-07-20T00:16:11;15.93;;;12.68;;
39956;SDS011;48483;44.640;7.494;2023-07-20T00:18:39;15.52;;;12.27;;
39956;SDS011;48483;44.640;7.494;2023-07-20T00:21:06;17.63;;;11.98;;
39956;SDS011;48483;44.640;7.494;2023-07-20T00:23:33;21.48;;;13.10;;
39956;SDS011;48483;44.640;7.494;2023-07-20T00:26:00;19.25;;;12.93;;
39956;SDS011;48483;44.640;7.494;2023-07-20T00:28:26;16.55;;;12.77;;
39956;SDS011;48483;44.640;7.494;2023-07-20T00:30:53;16.55;;;11.65;;
39956;SDS011;48483;44.640;7.494;2023-07-20T00:33:20;18.08;;;11.88;;
39956;SDS011;48483;44.640;7.494;2023-07-20T00:35:48;18.83;;;14.20;;
39956;SDS011;48483;44.640;7.494;2023-07-20T00:38:16;20.92;;;12.82;;
39956;SDS011;48483;44.640;7.494;2023-07-20T00:40:43;13.82;;;10.77;;
39956;SDS011;48483;44.640;7.494;2023-07-20T00:43:10;16.98;;;11.98;;
39956;SDS011;48483;44.640;7.494;2023-07-20T00:45:37;16.48;;;10.45;;
39956;SDS011;48483;44.640;7.494;2023-07-20T00:48:04;13.48;;;9.80;;
39956;SDS011;48483;44.640;7.494;2023-07-20T00:50:32;16.05;;;10.18;;
39956;SDS011;48483;44.640;7.494;2023-07-20T00:53:01;16.20;;;10.57;;
39956;SDS011;48483;44.640;7.494;2023-07-20T00:55:32;20.02;;;11.07;;
39956;SDS011;48483;44.640;7.494;2023-07-20T00:58:00;17.38;;;11.25;;
39956;SDS011;48483;44.640;7.494;2023-07-20T01:00:27;16.02;;;11.07;;
39956;SDS011;48483;44.640;7.494;2023-07-20T01:02:54;17.30;;;10.63;;
39956;SDS011;48483;44.640;7.494;2023-07-20T01:05:21;16.38;;;11.20;;
39956;SDS011;48483;44.640;7.494;2023-07-20T01:07:55;16.75;;;10.23;;
39956;SDS011;48483;44.640;7.494;2023-07-20T01:10:29;15.75;;;11.10;;
39956;SDS011;48483;44.640;7.494;2023-07-20T01:13:01;17.80;;;12.50;;
39956;SDS011;48483;44.640;7.494;2023-07-20T01:15:33;15.10;;;10.88;;
39956;SDS011;48483;44.640;7.494;2023-07-20T01:18:00;15.20;;;11.40;;
39956;SDS011;48483;44.640;7.494;2023-07-20T01:20:31;19.67;;;12.55;;
39956;SDS011;48483;44.640;7.494;2023-07-20T01:23:14;16.48;;;10.57;;
39956;SDS011;48483;44.640;7.494;2023-07-20T01:26:08;18.80;;;11.13;;
39956;SDS011;48483;44.640;7.494;2023-07-20T01:28:53;13.05;;;11.07;;
39956;SDS011;48483;44.640;7.494;2023-07-20T01:31:46;15.75;;;11.25;;
39956;SDS011;48483;44.640;7.494;2023-07-20T01:34:17;17.35;;;13.48;;
39956;SDS011;48483;44.640;7.494;2023-07-20T01:36:44;18.42;;;12.52;;
39956;SDS011;48483;44.640;7.494;2023-07-20T01:39:12;19.60;;;12.88;;
39956;SDS011;48483;44.640;7.494;2023-07-20T01:41:39;14.80;;;13.23;;
39956;SDS011;48483;44.640;7.494;2023-07-20T01:44:06;18.73;;;13.07;;
39956;SDS011;48483;44.640;7.494;2023-07-20T01:46:34;16.13;;;13.25;;
39956;SDS011;48483;44.640;7.494;2023-07-20T01:49:02;17.40;;;12.48;;
39956;SDS011;48483;44.640;7.494;2023-07-20T01:51:31;16.40;;;11.88;;
39956;SDS011;48483;44.640;7.494;2023-07-20T01:53:58;17.95;;;14.23;;
39956;SDS011;48483;44.640;7.494;2023-07-20T01:56:25;17.27;;;12.85;;
39956;SDS011;48483;44.640;7.494;2023-07-20T01:58:52;19.23;;;12.45;;
39956;SDS011;48483;44.640;7.494;2023-07-20T02:01:19;18.83;;;13.88;;
39956;SDS011;48483;44.640;7.494;2023-07-20T02:03:46;18.02;;;12.43;;
39956;SDS011;48483;44.640;7.494;2023-07-20T02:06:14;16.83;;;12.85;;
39956;SDS011;48483;44.640;7.494;2023-07-20T02:08:40;15.77;;;13.05;;
39956;SDS011;48483;44.640;7.494;2023-07-20T02:11:07;17.40;;;13.52;;
39956;SDS011;48483;44.640;7.494;2023-07-20T02:13:35;20.95;;;13.70;;
39956;SDS011;48483;44.640;7.494;2023-07-20T02:16:02;17.85;;;13.07;;
39956;SDS011;48483;44.640;7.494;2023-07-20T02:18:30;18.80;;;15.02;;
39956;SDS011;48483;44.640;7.494;2023-07-20T02:20:56;19.98;;;14.15;;
39956;SDS011;48483;44.640;7.494;2023-07-20T02:23:25;17.85;;;13.68;;
39956;SDS011;48483;44.640;7.494;2023-07-20T02:25:51;16.60;;;12.90;;
39956;SDS011;48483;44.640;7.494;2023-07-20T02:28:18;22.48;;;13.38;;
39956;SDS011;48483;44.640;7.494;2023-07-20T02:30:45;18.52;;;14.07;;
39956;SDS011;48483;44.640;7.494;2023-07-20T02:33:12;22.05;;;14.13;;
39956;SDS011;48483;44.640;7.494;2023-07-20T02:35:40;17.42;;;13.95;;
39956;SDS011;48483;44.640;7.494;2023-07-20T02:38:08;19.23;;;13.38;;
39956;SDS011;48483;44.640;7.494;2023-07-20T02:40:36;15.40;;;12.50;;
39956;SDS011;48483;44.640;7.494;2023-07-20T02:43:02;17.52;;;12.80;;
39956;SDS011;48483;44.640;7.494;2023-07-20T02:45:29;18.27;;;14.68;;
39956;SDS011;48483;44.640;7.494;2023-07-20T02:47:56;21.67;;;13.25;;
39956;SDS011;48483;44.640;7.494;2023-07-20T02:50:23;15.75;;;13.35;;
39956;SDS011;48483;44.640;7.494;2023-07-20T02:52:50;14.25;;;11.63;;
39956;SDS011;48483;44.640;7.494;2023-07-20T02:55:16;17.00;;;13.25;;
39956;SDS011;48483;44.640;7.494;2023-07-20T02:57:44;19.70;;;13.07;;
39956;SDS011;48483;44.640;7.494;2023-07-20T03:00:12;16.42;;;12.75;;
39956;SDS011;48483;44.640;7.494;2023-07-20T03:02:42;16.95;;;12.30;;
39956;SDS011;48483;44.640;7.494;2023-07-20T03:05:09;15.98;;;11.57;;
39956;SDS011;48483;44.640;7.494;2023-07-20T03:07:36;20.25;;;11.88;;
39956;SDS011;48483;44.640;7.494;2023-07-20T03:10:03;13.80;;;11.27;;
39956;SDS011;48483;44.640;7.494;2023-07-20T03:12:30;13.48;;;11.25;;
39956;SDS011;48483;44.640;7.494;2023-07-20T03:14:58;16.98;;;11.70;;
39956;SDS011;48483;44.640;7.494;2023-07-20T03:17:25;14.95;;;12.27;;
39956;SDS011;48483;44.640;7.494;2023-07-20T03:19:52;15.60;;;11.82;;
39956;SDS011;48483;44.640;7.494;2023-07-20T03:22:19;16.45;;;11.95;;
39956;SDS011;48483;44.640;7.494;2023-07-20T03:24:47;14.95;;;11.57;;
39956;SDS011;48483;44.640;7.494;2023-07-20T03:27:14;14.98;;;12.20;;
39956;SDS011;48483;44.640;7.494;2023-07-20T03:29:41;12.63;;;11.18;;
39956;SDS011;48483;44.640;7.494;2023-07-20T03:32:09;16.20;;;11.18;;
39956;SDS011;48483;44.640;7.494;2023-07-20T03:34:36;13.23;;;10.82;;
39956;SDS011;48483;44.640;7.494;2023-07-20T03:37:03;13.55;;;10.70;;
39956;SDS011;48483;44.640;7.494;2023-07-20T03:39:31;15.52;;;11.43;;
39956;SDS011;48483;44.640;7.494;2023-07-20T03:41:57;18.40;;;10.35;;
39956;SDS011;48483;44.640;7.494;2023-07-20T03:44:25;14.75;;;10.30;;
39956;SDS011;48483;44.640;7.494;2023-07-20T03:46:51;16.73;;;9.75;;
39956;SDS011;48483;44.640;7.494;2023-07-20T03:49:20;13.90;;;9.52;;
39956;SDS011;48483;44.640;7.494;2023-07-20T03:51:46;14.77;;;9.35;;
39956;SDS011;48483;44.640;7.494;2023-07-20T03:54:13;15.63;;;9.35;;
39956;SDS011;48483;44.640;7.494;2023-07-20T03:56:40;18.05;;;10.48;;
39956;SDS011;48483;44.640;7.494;2023-07-20T03:59:06;17.65;;;8.80;;
39956;SDS011;48483;44.640;7.494;2023-07-20T04:01:33;17.65;;;10.38;;
39956;SDS011;48483;44.640;7.494;2023-07-20T04:04:04;12.57;;;9.73;;
39956;SDS011;48483;44.640;7.494;2023-07-20T04:09:01;12.60;;;9.25;;
39956;SDS011;48483;44.640;7.494;2023-07-20T04:11:28;16.77;;;9.77;;
39956;SDS011;48483;44.640;7.494;2023-07-20T04:13:55;16.80;;;9.43;;
39956;SDS011;48483;44.640;7.494;2023-07-20T04:16:22;15.25;;;10.30;;
39956;SDS011;48483;44.640;7.494;2023-07-20T04:18:49;13.90;;;8.98;;
39956;SDS011;48483;44.640;7.494;2023-07-20T04:21:16;15.20;;;9.35;;
39956;SDS011;48483;44.640;7.494;2023-07-20T04:23:44;14.52;;;8.95;;
39956;SDS011;48483;44.640;7.494;2023-07-20T04:26:11;13.98;;;10.45;;
39956;SDS011;48483;44.640;7.494;2023-07-20T04:28:38;20.48;;;12.57;;
39956;SDS011;48483;44.640;7.494;2023-07-20T04:31:12;17.88;;;11.45;;
39956;SDS011;48483;44.640;7.494;2023-07-20T04:33:39;11.10;;;9.85;;
39956;SDS011;48483;44.640;7.494;2023-07-20T04:36:06;13.73;;;9.65;;
39956;SDS011;48483;44.640;7.494;2023-07-20T04:38:35;15.80;;;11.30;;
39956;SDS011;48483;44.640;7.494;2023-07-20T04:41:12;16.63;;;11.10;;
39956;SDS011;48483;44.640;7.494;2023-07-20T04:43:43;14.88;;;10.55;;
39956;SDS011;48483;44.640;7.494;2023-07-20T04:46:10;14.30;;;9.90;;
39956;SDS011;48483;44.640;7.494;2023-07-20T04:48:38;15.60;;;9.90;;
39956;SDS011;48483;44.640;7.494;2023-07-20T04:51:06;15.77;;;9.52;;
39956;SDS011;48483;44.640;7.494;2023-07-20T04:53:33;10.68;;;8.52;;
39956;SDS011;48483;44.640;7.494;2023-07-20T04:56:00;15.65;;;9.25;;
39956;SDS011;48483;44.640;7.494;2023-07-20T04:58:29;15.57;;;10.45;;
39956;SDS011;48483;44.640;7.494;2023-07-20T05:00:56;15.70;;;10.00;;
39956;SDS011;48483;44.640;7.494;2023-07-20T05:03:23;17.90;;;10.65;;
39956;SDS011;48483;44.640;7.494;2023-07-20T05:05:50;13.90;;;8.35;;
39956;SDS011;48483;44.640;7.494;2023-07-20T05:08:17;15.27;;;9.43;;
39956;SDS011;48483;44.640;7.494;2023-07-20T05:10:44;15.07;;;8.95;;
39956;SDS011;48483;44.640;7.494;2023-07-20T05:13:11;16.08;;;10.88;;
39956;SDS011;48483;44.640;7.494;2023-07-20T05:15:39;15.40;;;10.95;;
39956;SDS011;48483;44.640;7.494;2023-07-20T05:18:09;19.23;;;11.35;;
39956;SDS011;48483;44.640;7.494;2023-07-20T05:20:36;14.32;;;11.13;;
39956;SDS011;48483;44.640;7.494;2023-07-20T05:23:03;13.73;;;11.02;;
39956;SDS011;48483;44.640;7.494;2023-07-20T05:25:30;16.40;;;11.15;;
39956;SDS011;48483;44.640;7.494;2023-07-20T05:27:57;15.45;;;11.43;;
39956;SDS011;48483;44.640;7.494;2023-07-20T05:30:23;18.60;;;11.32;;
39956;SDS011;48483;44.640;7.494;2023-07-20T05:32:52;18.80;;;11.80;;
39956;SDS011;48483;44.640;7.494;2023-07-20T05:35:20;15.35;;;10.55;;
39956;SDS011;48483;44.640;7.494;2023-07-20T05:37:48;16.10;;;11.07;;
39956;SDS011;48483;44.640;7.494;2023-07-20T05:40:15;17.88;;;10.85;;
39956;SDS011;48483;44.640;7.494;2023-07-20T05:42:44;15.02;;;11.18;;
39956;SDS011;48483;44.640;7.494;2023-07-20T05:45:12;14.65;;;10.68;;
39956;SDS011;48483;44.640;7.494;2023-07-20T05:47:39;14.85;;;12.50;;
39956;SDS011;48483;44.640;7.494;2023-07-20T05:50:07;19.10;;;13.50;;
39956;SDS011;48483;44.640;7.494;2023-07-20T05:52:35;19.75;;;11.18;;
39956;SDS011;48483;44.640;7.494;2023-07-20T05:55:02;17.02;;;13.63;;
39956;SDS011;48483;44.640;7.494;2023-07-20T05:57:29;14.23;;;10.52;;
39956;SDS011;48483;44.640;7.494;2023-07-20T05:59:55;19.65;;;11.43;;
39956;SDS011;48483;44.640;7.494;2023-07-20T06:02:22;14.70;;;11.15;;
39956;SDS011;48483;44.640;7.494;2023-07-20T06:04:49;17.15;;;11.60;;
39956;SDS011;48483;44.640;7.494;2023-07-20T06:07:17;17.38;;;10.57;;
39956;SDS011;48483;44.640;7.494;2023-07-20T06:09:44;15.23;;;10.02;;
39956;SDS011;48483;44.640;7.494;2023-07-20T06:12:11;16.55;;;11.05;;
39956;SDS011;48483;44.640;7.494;2023-07-20T06:14:37;17.02;;;11.88;;
39956;SDS011;48483;44.640;7.494;2023-07-20T06:17:04;19.40;;;12.38;;
39956;SDS011;48483;44.640;7.494;2023-07-20T06:19:31;14.52;;;11.82;;
39956;SDS011;48483;44.640;7.494;2023-07-20T06:21:58;17.00;;;11.43;;
39956;SDS011;48483;44.640;7.494;2023-07-20T06:24:26;15.98;;;9.88;;
39956;SDS011;48483;44.640;7.494;2023-07-20T06:26:53;17.33;;;12.63;;
39956;SDS011;48483;44.640;7.494;2023-07-20T06:29:20;16.45;;;12.60;;
39956;SDS011;48483;44.640;7.494;2023-07-20T06:31:46;14.15;;;11.75;;
39956;SDS011;48483;44.640;7.494;2023-07-20T06:34:13;18.95;;;12.27;;
39956;SDS011;48483;44.640;7.494;2023-07-20T06:36:40;16.27;;;12.80;;
39956;SDS011;48483;44.640;7.494;2023-07-20T06:39:06;18.70;;;12.25;;
39956;SDS011;48483;44.640;7.494;2023-07-20T06:41:34;14.52;;;10.88;;
39956;SDS011;48483;44.640;7.494;2023-07-20T06:44:01;17.58;;;11.90;;
39956;SDS011;48483;44.640;7.494;2023-07-20T06:46:29;21.58;;;12.13;;
39956;SDS011;48483;44.640;7.494;2023-07-20T06:48:55;19.13;;;12.43;;
39956;SDS011;48483;44.640;7.494;2023-07-20T06:51:22;17.38;;;13.18;;
39956;SDS011;48483;44.640;7.494;2023-07-20T06:53:49;15.93;;;13.07;;
39956;SDS011;48483;44.640;7.494;2023-07-20T06:56:16;16.52;;;11.60;;
39956;SDS011;48483;44.640;7.494;2023-07-20T06:58:44;19.08;;;14.38;;
39956;SDS011;48483;44.640;7.494;2023-07-20T07:01:11;18.65;;;11.50;;
39956;SDS011;48483;44.640;7.494;2023-07-20T07:03:37;16.35;;;14.65;;
39956;SDS011;48483;44.640;7.494;2023-07-20T07:06:04;20.00;;;13.07;;
39956;SDS011;48483;44.640;7.494;2023-07-20T07:08:31;22.80;;;14.73;;
39956;SDS011;48483;44.640;7.494;2023-07-20T07:10:58;18.15;;;14.43;;
39956;SDS011;48483;44.640;7.494;2023-07-20T07:13:24;20.35;;;13.30;;
39956;SDS011;48483;44.640;7.494;2023-07-20T07:15:52;18.88;;;11.85;;
39956;SDS011;48483;44.640;7.494;2023-07-20T07:18:19;21.60;;;14.63;;
39956;SDS011;48483;44.640;7.494;2023-07-20T07:20:52;19.98;;;14.60;;
39956;SDS011;48483;44.640;7.494;2023-07-20T07:23:20;21.00;;;14.30;;
39956;SDS011;48483;44.640;7.494;2023-07-20T07:25:47;18.45;;;13.80;;
39956;SDS011;48483;44.640;7.494;2023-07-20T07:28:13;24.08;;;14.60;;
39956;SDS011;48483;44.640;7.494;2023-07-20T07:30:40;22.58;;;12.55;;
39956;SDS011;48483;44.640;7.494;2023-07-20T07:33:08;17.92;;;12.82;;
39956;SDS011;48483;44.640;7.494;2023-07-20T07:35:35;18.80;;;13.05;;
39956;SDS011;48483;44.640;7.494;2023-07-20T07:38:02;20.13;;;12.90;;
39956;SDS011;48483;44.640;7.494;2023-07-20T07:40:29;20.58;;;13.20;;
39956;SDS011;48483;44.640;7.494;2023-07-20T07:42:56;16.90;;;13.38;;
39956;SDS011;48483;44.640;7.494;2023-07-20T07:45:23;19.88;;;12.10;;
39956;SDS011;48483;44.640;7.494;2023-07-20T07:47:49;20.75;;;12.88;;
39956;SDS011;48483;44.640;7.494;2023-07-20T07:50:17;17.77;;;12.80;;
39956;SDS011;48483;44.640;7.494;2023-07-20T07:52:44;16.08;;;12.10;;
39956;SDS011;48483;44.640;7.494;2023-07-20T07:55:11;20.77;;;13.95;;
39956;SDS011;48483;44.640;7.494;2023-07-20T07:57:38;21.23;;;14.65;;
39956;SDS011;48483;44.640;7.494;2023-07-20T08:00:05;23.98;;;13.32;;
39956;SDS011;48483;44.640;7.494;2023-07-20T08:02:37;15.82;;;12.43;;
39956;SDS011;48483;44.640;7.494;2023-07-20T08:05:04;17.35;;;12.45;;
39956;SDS011;48483;44.640;7.494;2023-07-20T08:07:32;23.23;;;13.13;;
39956;SDS011;48483;44.640;7.494;2023-07-20T08:09:59;16.77;;;12.20;;
39956;SDS011;48483;44.640;7.494;2023-07-20T08:12:26;20.77;;;13.77;;
39956;SDS011;48483;44.640;7.494;2023-07-20T08:14:53;15.95;;;13.35;;
39956;SDS011;48483;44.640;7.494;2023-07-20T08:17:20;17.02;;;12.43;;
39956;SDS011;48483;44.640;7.494;2023-07-20T08:19:46;17.83;;;12.30;;
39956;SDS011;48483;44.640;7.494;2023-07-20T08:22:13;17.67;;;12.43;;
39956;SDS011;48483;44.640;7.494;2023-07-20T08:24:41;13.88;;;12.35;;
39956;SDS011;48483;44.640;7.494;2023-07-20T08:27:09;17.13;;;12.68;;
39956;SDS011;48483;44.640;7.494;2023-07-20T08:29:36;15.82;;;12.50;;
39956;SDS011;48483;44.640;7.494;2023-07-20T08:32:03;15.20;;;11.88;;
39956;SDS011;48483;44.640;7.494;2023-07-20T08:34:32;17.80;;;12.30;;
39956;SDS011;48483;44.640;7.494;2023-07-20T08:36:59;15.50;;;11.82;;
39956;SDS011;48483;44.640;7.494;2023-07-20T08:39:25;20.92;;;12.00;;
39956;SDS011;48483;44.640;7.494;2023-07-20T08:41:53;20.42;;;11.15;;
39956;SDS011;48483;44.640;7.494;2023-07-20T08:44:22;20.47;;;12.27;;
39956;SDS011;48483;44.640;7.494;2023-07-20T08:46:50;18.00;;;11.93;;
39956;SDS011;48483;44.640;7.494;2023-07-20T08:49:18;25.75;;;14.07;;
39956;SDS011;48483;44.640;7.494;2023-07-20T08:51:45;18.30;;;11.75;;
39956;SDS011;48483;44.640;7.494;2023-07-20T08:54:14;17.95;;;11.13;;
39956;SDS011;48483;44.640;7.494;2023-07-20T08:56:41;17.95;;;11.40;;
39956;SDS011;48483;44.640;7.494;2023-07-20T08:59:12;17.67;;;10.93;;
39956;SDS011;48483;44.640;7.494;2023-07-20T09:01:42;14.52;;;12.75;;
39956;SDS011;48483;44.640;7.494;2023-07-20T09:04:11;14.95;;;11.68;;
39956;SDS011;48483;44.640;7.494;2023-07-20T09:06:38;17.05;;;11.85;;
39956;SDS011;48483;44.640;7.494;2023-07-20T09:09:05;16.88;;;11.50;;
39956;SDS011;48483;44.640;7.494;2023-07-20T09:11:32;16.13;;;11.77;;
39956;SDS011;48483;44.640;7.494;2023-07-20T09:14:02;16.05;;;10.90;;
39956;SDS011;48483;44.640;7.494;2023-07-20T09:16:31;15.13;;;12.38;;
39956;SDS011;48483;44.640;7.494;2023-07-20T09:18:58;19.42;;;12.55;;
39956;SDS011;48483;44.640;7.494;2023-07-20T09:21:28;20.42;;;13.13;;
39956;SDS011;48483;44.640;7.494;2023-07-20T09:23:56;14.35;;;10.82;;
39956;SDS011;48483;44.640;7.494;2023-07-20T09:26:23;14.77;;;11.00;;
39956;SDS011;48483;44.640;7.494;2023-07-20T09:28:51;17.83;;;10.90;;
39956;SDS011;48483;44.640;7.494;2023-07-20T09:31:19;18.45;;;12.02;;
39956;SDS011;48483;44.640;7.494;2023-07-20T09:33:48;19.77;;;10.88;;
39956;SDS011;48483;44.640;7.494;2023-07-20T09:36:15;20.02;;;11.20;;
39956;SDS011;48483;44.640;7.494;2023-07-20T09:38:42;16.42;;;11.02;;
39956;SDS011;48483;44.640;7.494;2023-07-20T09:41:12;17.60;;;10.90;;
39956;SDS011;48483;44.640;7.494;2023-07-20T09:43:40;16.75;;;10.45;;
39956;SDS011;48483;44.640;7.494;2023-07-20T09:46:08;19.08;;;10.00;;
39956;SDS011;48483;44.640;7.494;2023-07-20T09:48:35;19.65;;;10.70;;
39956;SDS011;48483;44.640;7.494;2023-07-20T09:51:03;17.08;;;12.38;;
39956;SDS011;48483;44.640;7.494;2023-07-20T09:55:59;17.92;;;10.27;;
39956;SDS011;48483;44.640;7.494;2023-07-20T09:58:26;26.80;;;11.75;;
39956;SDS011;48483;44.640;7.494;2023-07-20T10:00:54;17.52;;;10.75;;
39956;SDS011;48483;44.640;7.494;2023-07-20T10:03:25;16.77;;;10.80;;
39956;SDS011;48483;44.640;7.494;2023-07-20T10:05:54;17.92;;;11.52;;
39956;SDS011;48483;44.640;7.494;2023-07-20T10:08:25;14.05;;;10.38;;
39956;SDS011;48483;44.640;7.494;2023-07-20T10:10:54;18.83;;;11.10;;
39956;SDS011;48483;44.640;7.494;2023-07-20T10:13:25;21.75;;;12.63;;
39956;SDS011;48483;44.640;7.494;2023-07-20T10:15:54;20.52;;;11.15;;
39956;SDS011;48483;44.640;7.494;2023-07-20T10:20:55;14.18;;;10.35;;
39956;SDS011;48483;44.640;7.494;2023-07-20T10:23:22;20.48;;;11.95;;
39956;SDS011;48483;44.640;7.494;2023-07-20T10:25:51;18.27;;;10.30;;
39956;SDS011;48483;44.640;7.494;2023-07-20T10:28:18;15.15;;;9.63;;
39956;SDS011;48483;44.640;7.494;2023-07-20T10:30:45;16.27;;;10.23;;
39956;SDS011;48483;44.640;7.494;2023-07-20T10:33:12;15.48;;;10.85;;
39956;SDS011;48483;44.640;7.494;2023-07-20T10:35:52;15.85;;;10.88;;
39956;SDS011;48483;44.640;7.494;2023-07-20T10:38:19;16.67;;;12.10;;
39956;SDS011;48483;44.640;7.494;2023-07-20T10:40:55;16.75;;;10.10;;
39956;SDS011;48483;44.640;7.494;2023-07-20T10:43:21;13.65;;;10.85;;
39956;SDS011;48483;44.640;7.494;2023-07-20T10:45:49;18.02;;;10.80;;
39956;SDS011;48483;44.640;7.494;2023-07-20T10:48:16;19.45;;;9.77;;
39956;SDS011;48483;44.640;7.494;2023-07-20T10:50:45;21.35;;;10.77;;
39956;SDS011;48483;44.640;7.494;2023-07-20T10:53:33;15.45;;;10.57;;
39956;SDS011;48483;44.640;7.494;2023-07-20T10:56:07;12.38;;;9.52;;
39956;SDS011;48483;44.640;7.494;2023-07-20T10:58:37;14.10;;;9.52;;
39956;SDS011;48483;44.640;7.494;2023-07-20T11:01:04;13.32;;;10.02;;
39956;SDS011;48483;44.640;7.494;2023-07-20T11:03:33;16.40;;;9.40;;
39956;SDS011;48483;44.640;7.494;2023-07-20T11:09:03;15.55;;;9.60;;
39956;SDS011;48483;44.640;7.494;2023-07-20T11:11:33;9.48;;;8.13;;
39956;SDS011;48483;44.640;7.494;2023-07-20T11:14:01;17.17;;;9.98;;
39956;SDS011;48483;44.640;7.494;2023-07-20T11:16:35;13.70;;;9.43;;
39956;SDS011;48483;44.640;7.494;2023-07-20T11:19:04;17.23;;;10.10;;
39956;SDS011;48483;44.640;7.494;2023-07-20T11:21:35;17.27;;;8.80;;
39956;SDS011;48483;44.640;7.494;2023-07-20T11:24:04;13.93;;;9.25;;
39956;SDS011;48483;44.640;7.494;2023-07-20T11:26:40;14.27;;;9.85;;
39956;SDS011;48483;44.640;7.494;2023-07-20T11:29:08;14.82;;;10.60;;
39956;SDS011;48483;44.640;7.494;2023-07-20T11:31:37;13.45;;;10.38;;
39956;SDS011;48483;44.640;7.494;2023-07-20T11:34:04;13.60;;;10.23;;
39956;SDS011;48483;44.640;7.494;2023-07-20T11:36:31;13.75;;;9.60;;
39956;SDS011;48483;44.640;7.494;2023-07-20T11:38:59;13.85;;;10.02;;
39956;SDS011;48483;44.640;7.494;2023-07-20T11:41:26;16.40;;;10.57;;
39956;SDS011;48483;44.640;7.494;2023-07-20T11:43:55;13.88;;;9.57;;
39956;SDS011;48483;44.640;7.494;2023-07-20T11:46:23;12.63;;;8.55;;
39956;SDS011;48483;44.640;7.494;2023-07-20T11:48:55;12.95;;;10.18;;
39956;SDS011;48483;44.640;7.494;2023-07-20T11:51:22;16.02;;;9.88;;
39956;SDS011;48483;44.640;7.494;2023-07-20T11:53:49;18.27;;;10.95;;
39956;SDS011;48483;44.640;7.494;2023-07-20T11:56:16;15.13;;;9.60;;
39956;SDS011;48483;44.640;7.494;2023-07-20T11:58:43;11.52;;;8.95;;
39956;SDS011;48483;44.640;7.494;2023-07-20T12:01:13;19.73;;;8.75;;
39956;SDS011;48483;44.640;7.494;2023-07-20T12:03:39;18.88;;;9.63;;
39956;SDS011;48483;44.640;7.494;2023-07-20T12:06:08;12.20;;;8.73;;
39956;SDS011;48483;44.640;7.494;2023-07-20T12:08:37;15.70;;;9.00;;
39956;SDS011;48483;44.640;7.494;2023-07-20T12:11:05;16.88;;;9.52;;
39956;SDS011;48483;44.640;7.494;2023-07-20T12:13:38;15.98;;;9.68;;
39956;SDS011;48483;44.640;7.494;2023-07-20T12:16:13;12.75;;;9.00;;
39956;SDS011;48483;44.640;7.494;2023-07-20T12:18:41;12.18;;;9.02;;
39956;SDS011;48483;44.640;7.494;2023-07-20T12:21:09;12.07;;;10.68;;
39956;SDS011;48483;44.640;7.494;2023-07-20T12:23:37;16.63;;;9.05;;
39956;SDS011;48483;44.640;7.494;2023-07-20T12:26:06;12.45;;;9.25;;
39956;SDS011;48483;44.640;7.494;2023-07-20T12:28:35;13.10;;;9.65;;
39956;SDS011;48483;44.640;7.494;2023-07-20T12:31:05;14.55;;;8.77;;
39956;SDS011;48483;44.640;7.494;2023-07-20T12:33:34;12.32;;;9.63;;
39956;SDS011;48483;44.640;7.494;2023-07-20T12:36:00;10.18;;;8.40;;
39956;SDS011;48483;44.640;7.494;2023-07-20T12:38:27;13.32;;;9.35;;
39956;SDS011;48483;44.640;7.494;2023-07-20T12:40:54;13.35;;;9.80;;
39956;SDS011;48483;44.640;7.494;2023-07-20T12:43:21;13.15;;;8.60;;
39956;SDS011;48483;44.640;7.494;2023-07-20T12:45:48;14.70;;;9.35;;
39956;SDS011;48483;44.640;7.494;2023-07-20T12:48:14;14.75;;;9.07;;
39956;SDS011;48483;44.640;7.494;2023-07-20T12:50:43;12.25;;;9.95;;
39956;SDS011;48483;44.640;7.494;2023-07-20T12:53:09;16.15;;;10.25;;
39956;SDS011;48483;44.640;7.494;2023-07-20T12:55:37;11.90;;;8.63;;
39956;SDS011;48483;44.640;7.494;2023-07-20T12:58:04;15.13;;;9.23;;
39956;SDS011;48483;44.640;7.494;2023-07-20T13:00:31;16.88;;;9.45;;
39956;SDS011;48483;44.640;7.494;2023-07-20T13:02:57;15.35;;;10.13;;
39956;SDS011;48483;44.640;7.494;2023-07-20T13:05:24;11.90;;;9.10;;
39956;SDS011;48483;44.640;7.494;2023-07-20T13:07:52;16.80;;;8.68;;
39956;SDS011;48483;44.640;7.494;2023-07-20T13:10:19;15.80;;;8.75;;
39956;SDS011;48483;44.640;7.494;2023-07-20T13:12:46;12.85;;;8.65;;
39956;SDS011;48483;44.640;7.494;2023-07-20T13:15:12;13.73;;;9.32;;
39956;SDS011;48483;44.640;7.494;2023-07-20T13:17:39;15.10;;;8.45;;
39956;SDS011;48483;44.640;7.494;2023-07-20T13:20:07;12.88;;;8.27;;
39956;SDS011;48483;44.640;7.494;2023-07-20T13:22:36;13.73;;;8.63;;
39956;SDS011;48483;44.640;7.494;2023-07-20T13:25:04;18.13;;;8.98;;
39956;SDS011;48483;44.640;7.494;2023-07-20T13:27:32;15.63;;;9.03;;
39956;SDS011;48483;44.640;7.494;2023-07-20T13:29:59;15.45;;;9.50;;
39956;SDS011;48483;44.640;7.494;2023-07-20T13:32:33;13.45;;;8.82;;
39956;SDS011;48483;44.640;7.494;2023-07-20T13:35:00;15.00;;;9.63;;
39956;SDS011;48483;44.640;7.494;2023-07-20T13:37:27;11.35;;;8.90;;
39956;SDS011;48483;44.640;7.494;2023-07-20T13:39:54;12.95;;;8.38;;
39956;SDS011;48483;44.640;7.494;2023-07-20T13:42:22;13.80;;;9.27;;
39956;SDS011;48483;44.640;7.494;2023-07-20T13:44:49;13.77;;;9.40;;
39956;SDS011;48483;44.640;7.494;2023-07-20T13:47:15;14.57;;;8.15;;
39956;SDS011;48483;44.640;7.494;2023-07-20T13:49:43;15.35;;;7.80;;
39956;SDS011;48483;44.640;7.494;2023-07-20T13:52:09;14.50;;;8.32;;
39956;SDS011;48483;44.640;7.494;2023-07-20T13:54:36;8.38;;;7.25;;
39956;SDS011;48483;44.640;7.494;2023-07-20T13:57:03;13.50;;;7.15;;
39956;SDS011;48483;44.640;7.494;2023-07-20T13:59:32;14.00;;;8.00;;
39956;SDS011;48483;44.640;7.494;2023-07-20T14:01:58;12.25;;;8.77;;
39956;SDS011;48483;44.640;7.494;2023-07-20T14:04:25;10.85;;;7.93;;
39956;SDS011;48483;44.640;7.494;2023-07-20T14:06:52;12.68;;;8.57;;
39956;SDS011;48483;44.640;7.494;2023-07-20T14:09:19;10.25;;;7.47;;
39956;SDS011;48483;44.640;7.494;2023-07-20T14:11:45;14.82;;;8.98;;
39956;SDS011;48483;44.640;7.494;2023-07-20T14:14:12;11.60;;;8.05;;
39956;SDS011;48483;44.640;7.494;2023-07-20T14:16:41;10.50;;;7.95;;
39956;SDS011;48483;44.640;7.494;2023-07-20T14:19:07;13.85;;;7.70;;
39956;SDS011;48483;44.640;7.494;2023-07-20T14:21:34;12.63;;;7.80;;
39956;SDS011;48483;44.640;7.494;2023-07-20T14:24:01;13.80;;;7.90;;
39956;SDS011;48483;44.640;7.494;2023-07-20T14:26:28;12.77;;;8.02;;
39956;SDS011;48483;44.640;7.494;2023-07-20T14:28:54;13.20;;;8.10;;
39956;SDS011;48483;44.640;7.494;2023-07-20T14:31:21;14.55;;;7.72;;
39956;SDS011;48483;44.640;7.494;2023-07-20T14:33:49;11.65;;;8.05;;
39956;SDS011;48483;44.640;7.494;2023-07-20T14:36:16;10.18;;;6.95;;
39956;SDS011;48483;44.640;7.494;2023-07-20T14:38:43;10.43;;;7.18;;
39956;SDS011;48483;44.640;7.494;2023-07-20T14:41:10;19.73;;;7.25;;